KFET

Fremont Municipal Airport

Fremont, Nebraska, USA
METAR KFET 190455Z AUTO 00000KT 10SM CLR 20/18 A2991 RMK AO2 LTG DSNT NE T01960183
Observed Flight Rules
Sep-19 @ 04:55 UTC (38 minutes ago) Visual Flight Rules
Visibility Clouds
10 miles
  • Clear skies
Temperatures Readings
Current 20°C / 68°F
Dewpoint 18°C / 64°F
Humidity 88%
Altimeter 29.91" Hg
Pressure 1013 hPa
Elevation 367
METAR KFET 190455Z AUTO 00000KT 10SM CLR 20/18 A2991 RMK AO2 LTG DSNT NE T01960183
Observed Flight Rules
Sep-19 @ 04:55 UTC
(38 minutes ago)
VFR
Clouds
  • Clear skies
Temperature Dewpoint
20°C / 68°F 18°C / 64°F
Humidity Altimeter Pressure
88% 29.91" Hg 1013 hPa